This is the latest recevied weather packets stored in our database for station/object TULLARI. If no packets are shown the sender has not sent any weather packets the latest 10 day(s).
| Time | Temp. | Humidity | Pressure | Rain* | Wind** | Luminosity | Snow |
|---|---|---|---|---|---|---|---|
| 1777574822 | 8.33° C | 78% | 1021.9 hPa | - | - | - | - |
| 1777573622 | 8.89° C | 76% | 1021.8 hPa | - | - | - | - |
| 1777572421 | 8.89° C | 76% | 1021.8 hPa | - | - | - | - |
| 1777571222 | 9.44° C | 75% | 1021.6 hPa | - | - | - | - |
| 1777570022 | 8.89° C | 77% | 1021.5 hPa | - | - | - | - |
| 1777568822 | 8.33° C | 77% | 1021.5 hPa | - | - | - | - |
| 1777567621 | 8.89° C | 76% | 1021.4 hPa | - | - | - | - |
| 1777566422 | 9.44° C | 73% | 1021.5 hPa | - | - | - | - |
| 1777565222 | 9.44° C | 72% | 1021.3 hPa | - | - | - | - |
| 1777564022 | 9.44° C | 73% | 1021.4 hPa | - | - | - | - |
| 1777562821 | 9.44° C | 72% | 1021.5 hPa | - | - | - | - |
| 1777561621 | 10° C | 70% | 1021.6 hPa | - | - | - | - |
| 1777560421 | 10.56° C | 69% | 1021.7 hPa | - | - | - | - |
| 1777559221 | 10° C | 70% | 1021.8 hPa | - | - | - | - |
| 1777558020 | 9.44° C | 73% | 1021.8 hPa | - | - | - | - |
| 1777556821 | 8.89° C | 76% | 1022 hPa | - | - | - | - |
| 1777555621 | 10° C | 72% | 1021.9 hPa | - | - | - | - |
| 1777554420 | 10° C | 70% | 1022.1 hPa | - | - | - | - |
| 1777553220 | 10.56° C | 71% | 1022.2 hPa | - | - | - | - |
| 1777552021 | 10° C | 71% | 1022.3 hPa | - | - | - | - |
| 1777550820 | 9.44° C | 72% | 1022.2 hPa | - | - | - | - |
| 1777549621 | 10° C | 72% | 1021.9 hPa | - | - | - | - |
| 1777548420 | 10° C | 72% | 1022.2 hPa | - | - | - | - |
| 1777547220 | 9.44° C | 73% | 1022.3 hPa | - | - | - | - |
| 1777546020 | 8.89° C | 80% | 1022.4 hPa | - | - | - | - |
* Rain since midnight (hover to see other rain measurements)
** Current wind speed in m/s (hover to see current wind gust speed)